createdAt,value
2019-03-17T00:00:16.716Z,983.60
2019-03-17T00:01:16.741Z,983.60
2019-03-17T00:02:16.738Z,983.64
2019-03-17T00:03:16.684Z,983.60
2019-03-17T00:04:16.676Z,983.59
2019-03-17T00:05:16.664Z,983.69
2019-03-17T00:06:16.659Z,983.61
2019-03-17T00:07:16.670Z,983.61
2019-03-17T00:08:16.651Z,983.61
2019-03-17T00:09:16.619Z,983.60
2019-03-17T00:10:16.607Z,983.56
2019-03-17T00:11:16.600Z,983.50
2019-03-17T00:12:16.587Z,983.55
2019-03-17T00:13:17.824Z,983.50
2019-03-17T00:14:16.577Z,983.51
2019-03-17T00:15:16.553Z,983.47
2019-03-17T00:16:16.539Z,983.49
2019-03-17T00:17:16.545Z,983.46
2019-03-17T00:18:16.521Z,983.42
2019-03-17T00:19:16.640Z,983.45
2019-03-17T00:20:16.513Z,983.45
2019-03-17T00:21:16.489Z,983.42
2019-03-17T00:22:16.490Z,983.39
2019-03-17T00:23:16.468Z,983.41
2019-03-17T00:24:16.466Z,983.37
2019-03-17T00:25:16.478Z,983.38
2019-03-17T00:26:16.452Z,983.36
2019-03-17T00:27:16.422Z,983.31
2019-03-17T00:28:16.409Z,983.32
2019-03-17T00:29:16.399Z,983.40
2019-03-17T00:30:16.388Z,983.35
2019-03-17T00:31:23.733Z,983.37
2019-03-17T00:32:17.398Z,983.31
2019-03-17T00:33:16.353Z,983.27
2019-03-17T00:34:16.353Z,983.30
2019-03-17T00:35:16.337Z,983.30
2019-03-17T00:36:16.321Z,983.32
2019-03-17T00:37:16.441Z,983.29
2019-03-17T00:38:16.306Z,983.29
2019-03-17T00:39:16.292Z,983.31
2019-03-17T00:40:16.278Z,983.27
2019-03-17T00:41:16.269Z,983.24
2019-03-17T00:42:16.294Z,983.17
2019-03-17T00:43:16.277Z,983.21
2019-03-17T00:44:16.230Z,983.15
2019-03-17T00:45:16.248Z,983.14
2019-03-17T00:46:16.257Z,983.15
2019-03-17T00:47:16.197Z,983.21
2019-03-17T00:48:16.189Z,983.17
2019-03-17T00:49:16.298Z,983.10
2019-03-17T00:50:16.169Z,983.02
2019-03-17T00:51:16.163Z,983.12
2019-03-17T00:52:16.143Z,983.07
2019-03-17T00:53:16.140Z,983.11
2019-03-17T00:54:16.125Z,983.17
2019-03-17T00:55:16.155Z,983.12
2019-03-17T00:56:16.112Z,983.03
2019-03-17T00:57:16.122Z,983.11
2019-03-17T00:58:16.078Z,983.13
2019-03-17T00:59:16.077Z,983.06
2019-03-17T01:00:16.065Z,983.04
2019-03-17T01:01:16.163Z,983.08
2019-03-17T01:02:16.034Z,983.03
2019-03-17T01:03:16.046Z,983.00
2019-03-17T01:04:16.013Z,983.02
2019-03-17T01:05:16.000Z,982.99
2019-03-17T01:06:15.998Z,982.94
2019-03-17T01:07:16.104Z,982.97
2019-03-17T01:08:15.971Z,982.99
2019-03-17T01:09:15.980Z,982.96
2019-03-17T01:10:15.945Z,982.97
2019-03-17T01:11:15.937Z,982.98
2019-03-17T01:12:15.927Z,982.89
2019-03-17T01:13:16.041Z,982.92
2019-03-17T01:14:15.902Z,982.93
2019-03-17T01:15:15.901Z,982.83
2019-03-17T01:16:15.913Z,982.80
2019-03-17T01:17:15.875Z,982.78
2019-03-17T01:18:15.859Z,982.80
2019-03-17T01:19:15.882Z,982.77
2019-03-17T01:20:15.841Z,982.76
2019-03-17T01:21:15.825Z,982.76
2019-03-17T01:22:15.822Z,982.65
2019-03-17T01:23:15.812Z,982.78
2019-03-17T01:24:15.795Z,982.66
2019-03-17T01:25:16.086Z,982.71
2019-03-17T01:26:15.776Z,982.72
2019-03-17T01:27:15.771Z,982.74
2019-03-17T01:28:15.778Z,982.73
2019-03-17T01:29:15.739Z,982.72
2019-03-17T01:30:15.725Z,982.71
2019-03-17T01:31:15.761Z,982.67
2019-03-17T01:32:15.709Z,982.60
2019-03-17T01:33:15.694Z,982.60
2019-03-17T01:34:15.684Z,982.63
2019-03-17T01:35:15.672Z,982.66
2019-03-17T01:36:15.661Z,982.66
2019-03-17T01:37:15.715Z,982.64
2019-03-17T01:38:15.652Z,982.57
2019-03-17T01:39:15.629Z,982.50
2019-03-17T01:40:15.619Z,982.48
2019-03-17T01:41:15.608Z,982.45
2019-03-17T01:42:18.331Z,982.41
2019-03-17T01:43:15.624Z,982.43
2019-03-17T01:44:15.609Z,982.41
2019-03-17T01:45:15.568Z,982.37
2019-03-17T01:46:15.557Z,982.42
2019-03-17T01:47:15.544Z,982.37
2019-03-17T01:48:15.535Z,982.37
2019-03-17T01:49:15.554Z,982.30
2019-03-17T01:50:15.534Z,982.37
2019-03-17T01:51:15.500Z,982.34
2019-03-17T01:52:15.487Z,982.37
2019-03-17T01:53:15.473Z,982.31
2019-03-17T01:54:15.467Z,982.34
2019-03-17T01:55:15.497Z,982.26
2019-03-17T01:56:15.465Z,982.24
2019-03-17T01:57:15.451Z,982.16
2019-03-17T01:58:15.429Z,982.22
2019-03-17T01:59:15.417Z,982.19
2019-03-17T02:00:15.397Z,982.16
2019-03-17T02:01:15.681Z,982.15
2019-03-17T02:02:15.378Z,982.14
2019-03-17T02:03:15.380Z,982.13
2019-03-17T02:04:15.354Z,982.18
2019-03-17T02:05:21.844Z,982.19
2019-03-17T02:06:16.373Z,982.09
2019-03-17T02:07:15.324Z,982.01
2019-03-17T02:08:15.319Z,982.06
2019-03-17T02:09:15.298Z,982.06
2019-03-17T02:10:15.291Z,982.05
2019-03-17T02:11:15.277Z,981.98
2019-03-17T02:12:15.555Z,982.04
2019-03-17T02:13:15.254Z,982.03
2019-03-17T02:14:15.246Z,982.01
2019-03-17T02:15:15.233Z,981.93
2019-03-17T02:16:15.224Z,981.92
2019-03-17T02:17:15.215Z,981.89
2019-03-17T02:18:15.269Z,981.88
2019-03-17T02:19:15.194Z,981.89
2019-03-17T02:20:15.182Z,981.91
2019-03-17T02:21:15.167Z,981.93
2019-03-17T02:22:15.161Z,981.92
2019-03-17T02:23:15.186Z,981.90
2019-03-17T02:24:15.264Z,981.94
2019-03-17T02:25:15.188Z,981.85
2019-03-17T02:26:15.114Z,981.79
2019-03-17T02:27:15.105Z,981.80
2019-03-17T02:28:15.092Z,981.79
2019-03-17T02:29:15.083Z,981.77
2019-03-17T02:30:15.430Z,981.71
2019-03-17T02:31:15.075Z,981.72
2019-03-17T02:32:15.048Z,981.69
2019-03-17T02:33:15.054Z,981.70
2019-03-17T02:34:15.045Z,981.74
2019-03-17T02:35:15.027Z,981.65
2019-03-17T02:36:15.393Z,981.69
2019-03-17T02:37:14.997Z,981.64
2019-03-17T02:38:14.991Z,981.71
2019-03-17T02:39:14.978Z,981.71
2019-03-17T02:40:14.967Z,981.81
2019-03-17T02:41:14.957Z,981.71
2019-03-17T02:42:14.977Z,981.76
2019-03-17T02:43:14.928Z,981.73
2019-03-17T02:44:14.917Z,981.73
2019-03-17T02:45:14.909Z,981.73
2019-03-17T02:46:14.898Z,981.76
2019-03-17T02:47:14.884Z,981.79
2019-03-17T02:48:15.002Z,981.77
2019-03-17T02:49:14.885Z,981.68
2019-03-17T02:50:14.856Z,981.68
2019-03-17T02:51:14.843Z,981.67
2019-03-17T02:52:14.837Z,981.64
2019-03-17T02:53:14.839Z,981.62
2019-03-17T02:54:14.849Z,981.64
2019-03-17T02:55:14.811Z,981.64
2019-03-17T02:56:14.799Z,981.60
2019-03-17T02:57:14.796Z,981.60
2019-03-17T02:58:14.789Z,981.61
2019-03-17T02:59:14.751Z,981.64
2019-03-17T03:00:18.201Z,981.68
2019-03-17T03:01:14.732Z,981.66
2019-03-17T03:02:14.733Z,981.66
2019-03-17T03:03:14.713Z,981.66
2019-03-17T03:04:14.710Z,981.63
2019-03-17T03:05:14.685Z,981.72
2019-03-17T03:06:14.804Z,981.69
2019-03-17T03:07:14.676Z,981.61
2019-03-17T03:08:14.677Z,981.69
2019-03-17T03:09:14.648Z,981.67
2019-03-17T03:10:14.633Z,981.60
2019-03-17T03:11:14.743Z,981.62
2019-03-17T03:12:14.655Z,981.65
2019-03-17T03:13:14.602Z,981.55
2019-03-17T03:14:14.602Z,981.61
2019-03-17T03:15:14.583Z,981.60
2019-03-17T03:16:14.581Z,981.56
2019-03-17T03:17:14.556Z,981.59
2019-03-17T03:18:14.669Z,981.59
2019-03-17T03:19:14.553Z,981.67
2019-03-17T03:20:14.526Z,981.65
2019-03-17T03:21:14.514Z,981.72
2019-03-17T03:22:14.510Z,981.72
2019-03-17T03:23:14.492Z,981.67
2019-03-17T03:24:14.512Z,981.64
2019-03-17T03:25:14.488Z,981.63
2019-03-17T03:26:14.467Z,981.64
2019-03-17T03:27:14.448Z,981.60
2019-03-17T03:28:14.435Z,981.55
2019-03-17T03:29:14.427Z,981.61
2019-03-17T03:30:14.568Z,981.63
2019-03-17T03:31:14.430Z,981.63
2019-03-17T03:32:14.407Z,981.62
2019-03-17T03:33:14.408Z,981.66
2019-03-17T03:34:14.371Z,981.59
2019-03-17T03:35:14.365Z,981.51
2019-03-17T03:36:14.375Z,981.40
2019-03-17T03:37:14.350Z,981.38
2019-03-17T03:38:14.328Z,981.29
2019-03-17T03:39:14.316Z,981.27
2019-03-17T03:40:14.320Z,981.23
2019-03-17T03:41:14.333Z,981.09
2019-03-17T03:42:14.413Z,981.18
2019-03-17T03:43:14.282Z,981.16
2019-03-17T03:44:14.264Z,981.07
2019-03-17T03:45:14.262Z,981.08
2019-03-17T03:46:14.288Z,981.02
2019-03-17T03:47:14.229Z,981.04
2019-03-17T03:48:14.252Z,980.97
2019-03-17T03:49:14.209Z,980.96
2019-03-17T03:50:14.195Z,980.94
2019-03-17T03:51:14.190Z,980.93
2019-03-17T03:52:14.192Z,980.91
2019-03-17T03:53:14.175Z,980.87
2019-03-17T03:54:14.186Z,980.85
2019-03-17T03:55:14.147Z,980.80
2019-03-17T03:56:14.130Z,980.81
2019-03-17T03:57:14.119Z,980.82
2019-03-17T03:58:14.121Z,980.73
2019-03-17T03:59:14.109Z,980.79
2019-03-17T04:00:14.139Z,980.77
2019-03-17T04:01:14.081Z,980.78
2019-03-17T04:02:14.065Z,980.79
2019-03-17T04:03:14.057Z,980.78
2019-03-17T04:04:14.046Z,980.82
2019-03-17T04:05:14.038Z,980.76
2019-03-17T04:06:25.725Z,980.88
2019-03-17T04:07:15.005Z,980.88
2019-03-17T04:08:14.006Z,980.87
2019-03-17T04:09:13.995Z,980.93
2019-03-17T04:10:13.989Z,980.90
2019-03-17T04:11:13.979Z,980.96
2019-03-17T04:12:14.007Z,980.93
2019-03-17T04:13:13.954Z,980.92
2019-03-17T04:14:13.932Z,980.94
2019-03-17T04:15:13.924Z,980.86
2019-03-17T04:16:13.914Z,980.86
2019-03-17T04:17:13.907Z,980.84
2019-03-17T04:18:14.021Z,980.83
2019-03-17T04:19:13.905Z,980.92
2019-03-17T04:20:13.881Z,980.84
2019-03-17T04:21:13.860Z,980.84
2019-03-17T04:22:13.853Z,980.90
2019-03-17T04:23:13.833Z,980.89
2019-03-17T04:24:13.853Z,980.91
2019-03-17T04:25:13.818Z,980.96
2019-03-17T04:26:13.802Z,980.96
2019-03-17T04:27:13.800Z,980.94
2019-03-17T04:28:13.792Z,980.99
2019-03-17T04:29:13.774Z,980.97
2019-03-17T04:30:13.898Z,980.90
2019-03-17T04:31:14.720Z,981.00
2019-03-17T04:32:13.745Z,980.90
2019-03-17T04:33:13.735Z,980.97
2019-03-17T04:34:13.730Z,980.87
2019-03-17T04:35:13.706Z,980.90
2019-03-17T04:36:13.733Z,980.81
2019-03-17T04:37:13.699Z,980.82
2019-03-17T04:38:13.677Z,980.87
2019-03-17T04:39:13.665Z,980.84
2019-03-17T04:40:13.650Z,980.90
2019-03-17T04:41:13.649Z,980.88
2019-03-17T04:42:13.752Z,980.85
2019-03-17T04:43:13.630Z,980.90
2019-03-17T04:44:20.843Z,980.88
2019-03-17T04:45:14.628Z,980.97
2019-03-17T04:46:13.581Z,980.97
2019-03-17T04:47:13.572Z,980.90
2019-03-17T04:48:13.599Z,980.95
2019-03-17T04:49:13.559Z,980.91
2019-03-17T04:50:13.540Z,980.96
2019-03-17T04:51:13.542Z,980.97
2019-03-17T04:52:13.529Z,980.95
2019-03-17T04:53:13.509Z,980.98
2019-03-17T04:54:13.612Z,980.94
2019-03-17T04:55:13.488Z,980.95
2019-03-17T04:56:13.478Z,980.94
2019-03-17T04:57:13.461Z,980.91
2019-03-17T04:58:13.514Z,980.78
2019-03-17T04:59:13.442Z,980.73
2019-03-17T05:00:13.466Z,980.82
2019-03-17T05:01:13.431Z,980.82
2019-03-17T05:02:13.824Z,980.92
2019-03-17T05:03:13.400Z,980.90
2019-03-17T05:04:13.397Z,980.74
2019-03-17T05:05:13.378Z,980.72
2019-03-17T05:06:13.609Z,980.70
2019-03-17T05:07:13.363Z,980.70
2019-03-17T05:08:13.340Z,980.70
2019-03-17T05:09:13.330Z,980.69
2019-03-17T05:10:13.325Z,980.67
2019-03-17T05:11:13.311Z,980.66
2019-03-17T05:12:13.328Z,980.69
2019-03-17T05:13:13.285Z,980.71
2019-03-17T05:14:13.278Z,980.72
2019-03-17T05:15:13.267Z,980.75
2019-03-17T05:16:13.276Z,980.79
2019-03-17T05:17:13.245Z,980.83
2019-03-17T05:18:13.272Z,980.89
2019-03-17T05:19:13.221Z,980.83
2019-03-17T05:20:13.212Z,980.82
2019-03-17T05:21:13.199Z,980.78
2019-03-17T05:22:13.194Z,980.79
2019-03-17T05:23:13.185Z,980.78
2019-03-17T05:24:13.295Z,980.89
2019-03-17T05:25:13.158Z,980.96
2019-03-17T05:26:13.143Z,981.00
2019-03-17T05:27:13.150Z,980.88
2019-03-17T05:28:13.134Z,980.89
2019-03-17T05:29:13.126Z,980.87
2019-03-17T05:30:13.220Z,980.80
2019-03-17T05:31:13.092Z,980.90
2019-03-17T05:32:13.084Z,980.80
2019-03-17T05:33:13.071Z,980.83
2019-03-17T05:34:13.130Z,980.82
2019-03-17T05:35:13.055Z,980.75
2019-03-17T05:36:13.115Z,980.79
2019-03-17T05:37:13.025Z,980.82
2019-03-17T05:38:13.015Z,980.77
2019-03-17T05:39:13.003Z,980.70
2019-03-17T05:40:12.997Z,980.74
2019-03-17T05:41:12.983Z,980.76
2019-03-17T05:42:13.104Z,980.81
2019-03-17T05:43:12.965Z,980.83
2019-03-17T05:44:12.955Z,980.85
2019-03-17T05:45:12.956Z,980.93
2019-03-17T05:46:12.924Z,980.88
2019-03-17T05:47:12.919Z,980.91
2019-03-17T05:48:12.958Z,980.87
2019-03-17T05:49:12.893Z,980.88
2019-03-17T05:50:12.887Z,980.95
2019-03-17T05:51:12.871Z,981.01
2019-03-17T05:52:12.861Z,981.01
2019-03-17T05:53:12.847Z,981.00
2019-03-17T05:54:12.898Z,980.97
2019-03-17T05:55:12.829Z,980.93
2019-03-17T05:56:12.814Z,980.96
2019-03-17T05:57:12.804Z,980.92
2019-03-17T05:58:12.796Z,980.96
2019-03-17T05:59:12.786Z,980.96
2019-03-17T06:00:12.888Z,980.97
2019-03-17T06:01:12.775Z,981.01
2019-03-17T06:02:12.769Z,981.05
2019-03-17T06:03:12.740Z,981.11
2019-03-17T06:04:12.728Z,981.08
2019-03-17T06:05:12.718Z,980.96
2019-03-17T06:06:12.746Z,981.04
2019-03-17T06:07:18.702Z,980.98
2019-03-17T06:08:13.692Z,981.09
2019-03-17T06:09:12.674Z,981.15
2019-03-17T06:10:12.668Z,981.01
2019-03-17T06:11:12.650Z,980.99
2019-03-17T06:12:12.767Z,981.12
2019-03-17T06:13:12.628Z,981.09
2019-03-17T06:14:12.631Z,981.05
2019-03-17T06:15:12.685Z,981.01
2019-03-17T06:16:12.603Z,981.07
2019-03-17T06:17:12.595Z,980.98
2019-03-17T06:18:12.719Z,981.02
2019-03-17T06:19:12.572Z,981.05
2019-03-17T06:20:12.569Z,981.01
2019-03-17T06:21:12.544Z,980.98
2019-03-17T06:22:12.561Z,980.95
2019-03-17T06:23:12.531Z,981.05
2019-03-17T06:24:12.547Z,981.18
2019-03-17T06:25:12.515Z,981.20
2019-03-17T06:26:12.490Z,981.18
2019-03-17T06:27:12.495Z,981.15
2019-03-17T06:28:12.475Z,981.10
2019-03-17T06:29:12.466Z,981.11
2019-03-17T06:30:12.512Z,981.13
2019-03-17T06:31:12.449Z,981.14
2019-03-17T06:32:12.420Z,981.11
2019-03-17T06:33:12.408Z,980.93
2019-03-17T06:34:12.416Z,981.10
2019-03-17T06:35:12.395Z,980.97
2019-03-17T06:36:12.419Z,981.05
2019-03-17T06:37:12.365Z,981.04
2019-03-17T06:38:12.368Z,981.00
2019-03-17T06:39:12.352Z,981.04
2019-03-17T06:40:12.509Z,981.03
2019-03-17T06:41:12.328Z,981.08
2019-03-17T06:42:12.395Z,981.08
2019-03-17T06:43:12.300Z,981.10
2019-03-17T06:44:12.287Z,981.05
2019-03-17T06:45:12.281Z,981.12
2019-03-17T06:46:12.271Z,981.11
2019-03-17T06:47:12.264Z,981.17
2019-03-17T06:48:12.288Z,981.26
2019-03-17T06:49:12.243Z,981.26
2019-03-17T06:50:12.227Z,981.38
2019-03-17T06:51:12.213Z,981.40
2019-03-17T06:52:12.206Z,981.40
2019-03-17T06:53:12.220Z,981.41
2019-03-17T06:54:12.554Z,981.40
2019-03-17T06:55:12.170Z,981.49
2019-03-17T06:56:12.157Z,981.34
2019-03-17T06:57:12.171Z,981.51
2019-03-17T06:58:12.141Z,981.45
2019-03-17T06:59:12.146Z,981.44
2019-03-17T07:00:12.167Z,981.45
2019-03-17T07:01:12.111Z,981.47
2019-03-17T07:02:12.111Z,981.48
2019-03-17T07:03:12.101Z,981.50
2019-03-17T07:04:12.082Z,981.52
2019-03-17T07:05:12.070Z,981.50
2019-03-17T07:06:12.085Z,981.53
2019-03-17T07:07:12.058Z,981.53
2019-03-17T07:08:12.024Z,981.54
2019-03-17T07:09:12.084Z,981.63
2019-03-17T07:10:12.003Z,981.62
2019-03-17T07:11:12.001Z,981.62
2019-03-17T07:12:12.024Z,981.59
2019-03-17T07:13:11.981Z,981.70
2019-03-17T07:14:11.970Z,981.58
2019-03-17T07:15:11.967Z,981.67
2019-03-17T07:16:11.938Z,981.65
2019-03-17T07:17:11.925Z,981.73
2019-03-17T07:18:12.046Z,981.55
2019-03-17T07:19:11.989Z,981.60
2019-03-17T07:20:11.916Z,981.63
2019-03-17T07:21:11.911Z,981.54
2019-03-17T07:22:11.892Z,981.65
2019-03-17T07:23:11.865Z,981.64
2019-03-17T07:24:11.895Z,981.70
2019-03-17T07:25:12.546Z,981.74
2019-03-17T07:26:11.934Z,981.78
2019-03-17T07:27:11.833Z,981.82
2019-03-17T07:28:11.814Z,981.80
2019-03-17T07:29:11.797Z,981.81
2019-03-17T07:30:11.921Z,981.75
2019-03-17T07:31:11.772Z,981.79
2019-03-17T07:32:11.766Z,981.85
2019-03-17T07:33:11.775Z,981.80
2019-03-17T07:34:11.740Z,981.85
2019-03-17T07:35:11.747Z,981.75
2019-03-17T07:36:11.852Z,981.76
2019-03-17T07:37:11.706Z,981.74
2019-03-17T07:38:11.729Z,981.76
2019-03-17T07:39:12.465Z,981.77
2019-03-17T07:40:11.695Z,981.76
2019-03-17T07:41:11.665Z,981.80
2019-03-17T07:42:11.784Z,981.84
2019-03-17T07:43:11.642Z,981.86
2019-03-17T07:44:11.632Z,981.83
2019-03-17T07:45:11.634Z,981.84
2019-03-17T07:46:11.608Z,981.93
2019-03-17T07:47:11.597Z,981.83
2019-03-17T07:48:11.732Z,981.91
2019-03-17T07:49:11.589Z,981.88
2019-03-17T07:50:11.571Z,981.95
2019-03-17T07:51:11.554Z,981.90
2019-03-17T07:52:11.541Z,982.02
2019-03-17T07:53:11.532Z,981.95
2019-03-17T07:54:11.668Z,982.00
2019-03-17T07:55:11.522Z,982.08
2019-03-17T07:56:11.501Z,982.07
2019-03-17T07:57:11.488Z,982.05
2019-03-17T07:58:11.477Z,982.06
2019-03-17T07:59:11.468Z,982.08
2019-03-17T08:00:11.505Z,982.09
2019-03-17T08:01:11.456Z,982.12
2019-03-17T08:02:11.443Z,982.25
2019-03-17T08:03:11.425Z,982.20
2019-03-17T08:04:11.412Z,982.34
2019-03-17T08:05:11.405Z,982.26
2019-03-17T08:06:11.434Z,982.45
2019-03-17T08:07:11.382Z,982.91
2019-03-17T08:08:11.431Z,983.01
2019-03-17T08:09:11.369Z,982.94
2019-03-17T08:10:11.353Z,983.08
2019-03-17T08:11:11.354Z,983.02
2019-03-17T08:12:11.756Z,983.05
2019-03-17T08:13:11.318Z,983.12
2019-03-17T08:14:11.301Z,983.14
2019-03-17T08:15:11.298Z,983.11
2019-03-17T08:16:11.285Z,983.10
2019-03-17T08:17:11.292Z,983.28
2019-03-17T08:18:11.378Z,983.33
2019-03-17T08:19:11.254Z,983.24
2019-03-17T08:20:11.245Z,983.20
2019-03-17T08:21:11.230Z,983.26
2019-03-17T08:22:11.215Z,983.38
2019-03-17T08:23:11.204Z,983.32
2019-03-17T08:24:11.248Z,983.45
2019-03-17T08:25:11.195Z,983.33
2019-03-17T08:26:11.172Z,983.33
2019-03-17T08:27:11.161Z,983.27
2019-03-17T08:28:11.154Z,983.34
2019-03-17T08:29:11.140Z,983.42
2019-03-17T08:30:11.181Z,983.38
2019-03-17T08:31:11.129Z,983.48
2019-03-17T08:32:11.110Z,983.66
2019-03-17T08:33:11.099Z,983.48
2019-03-17T08:34:11.084Z,983.56
2019-03-17T08:35:11.074Z,983.51
2019-03-17T08:36:11.193Z,983.50
2019-03-17T08:37:11.083Z,983.45
2019-03-17T08:38:21.418Z,983.50
2019-03-17T08:39:12.029Z,983.47
2019-03-17T08:40:11.025Z,983.51
2019-03-17T08:41:11.012Z,983.55
2019-03-17T08:42:11.123Z,983.53
2019-03-17T08:43:10.995Z,983.48
2019-03-17T08:44:10.976Z,983.52
2019-03-17T08:45:10.967Z,983.43
2019-03-17T08:46:10.974Z,983.38
2019-03-17T08:47:10.954Z,983.42
2019-03-17T08:48:11.060Z,983.40
2019-03-17T08:49:10.950Z,983.42
2019-03-17T08:50:10.991Z,983.40
2019-03-17T08:51:10.949Z,983.39
2019-03-17T08:52:10.899Z,983.36
2019-03-17T08:53:10.892Z,983.34
2019-03-17T08:54:10.994Z,983.31
2019-03-17T08:55:10.885Z,983.34
2019-03-17T08:56:10.847Z,983.34
2019-03-17T08:57:10.836Z,983.29
2019-03-17T08:58:10.835Z,983.29
2019-03-17T08:59:10.817Z,983.27
2019-03-17T09:00:10.943Z,983.39
2019-03-17T09:01:10.811Z,983.37
2019-03-17T09:02:10.787Z,983.39
2019-03-17T09:03:10.779Z,983.38
2019-03-17T09:04:10.778Z,983.43
2019-03-17T09:05:10.780Z,983.36
2019-03-17T09:06:10.826Z,983.35
2019-03-17T09:07:10.730Z,983.31
2019-03-17T09:08:10.723Z,983.25
2019-03-17T09:09:10.709Z,983.22
2019-03-17T09:10:10.699Z,983.24
2019-03-17T09:11:10.690Z,983.23
2019-03-17T09:12:10.852Z,983.29
2019-03-17T09:13:10.668Z,983.35
2019-03-17T09:14:10.653Z,983.39
2019-03-17T09:15:10.652Z,983.47
2019-03-17T09:16:10.657Z,983.42
2019-03-17T09:17:14.642Z,983.56
2019-03-17T09:18:10.747Z,983.50
2019-03-17T09:19:10.609Z,983.50
2019-03-17T09:20:10.593Z,983.48
2019-03-17T09:21:10.582Z,983.47
2019-03-17T09:22:10.595Z,983.34
2019-03-17T09:23:10.596Z,983.38
2019-03-17T09:24:17.025Z,983.30
2019-03-17T09:25:11.544Z,983.38
2019-03-17T09:26:10.519Z,983.46
2019-03-17T09:27:10.533Z,983.42
2019-03-17T09:28:10.513Z,983.48
2019-03-17T09:29:10.609Z,983.42
2019-03-17T09:30:10.531Z,983.42
2019-03-17T09:31:10.487Z,983.42
2019-03-17T09:32:10.463Z,983.34
2019-03-17T09:33:10.459Z,983.30
2019-03-17T09:34:10.433Z,983.35
2019-03-17T09:35:10.440Z,983.37
2019-03-17T09:36:10.451Z,983.39
2019-03-17T09:37:10.421Z,983.42
2019-03-17T09:38:10.410Z,983.46
2019-03-17T09:39:10.380Z,983.53
2019-03-17T09:40:10.379Z,983.48
2019-03-17T09:41:10.360Z,983.46
2019-03-17T09:42:11.222Z,983.50
2019-03-17T09:43:10.340Z,983.48
2019-03-17T09:44:10.335Z,983.55
2019-03-17T09:45:10.324Z,983.49
2019-03-17T09:46:10.305Z,983.48
2019-03-17T09:47:10.296Z,983.54
2019-03-17T09:48:10.347Z,983.57
2019-03-17T09:49:10.279Z,983.54
2019-03-17T09:50:10.275Z,983.60
2019-03-17T09:51:10.342Z,983.70
2019-03-17T09:52:10.245Z,983.65
2019-03-17T09:53:10.303Z,983.70
2019-03-17T09:54:10.278Z,983.68
2019-03-17T09:55:10.211Z,983.71
2019-03-17T09:56:10.228Z,983.68
2019-03-17T09:57:10.217Z,983.71
2019-03-17T09:58:10.177Z,983.65
2019-03-17T09:59:10.161Z,983.52
2019-03-17T10:00:10.182Z,983.57
2019-03-17T10:01:10.138Z,983.57
2019-03-17T10:02:10.138Z,983.62
2019-03-17T10:03:10.127Z,983.63
2019-03-17T10:04:10.109Z,983.59
2019-03-17T10:05:10.107Z,983.58
2019-03-17T10:06:10.129Z,983.65
2019-03-17T10:07:10.077Z,983.64
2019-03-17T10:08:10.068Z,983.65
2019-03-17T10:09:10.055Z,983.65
2019-03-17T10:10:10.042Z,983.60
2019-03-17T10:11:10.817Z,983.59
2019-03-17T10:12:10.075Z,983.60
2019-03-17T10:13:10.011Z,983.59
2019-03-17T10:14:10.005Z,983.64
2019-03-17T10:15:09.989Z,983.65
2019-03-17T10:16:09.984Z,983.66
2019-03-17T10:17:09.987Z,983.67
2019-03-17T10:18:10.090Z,983.73
2019-03-17T10:19:10.010Z,983.80
2019-03-17T10:20:09.937Z,983.76
2019-03-17T10:21:09.934Z,983.73
2019-03-17T10:22:09.910Z,983.74
2019-03-17T10:23:09.913Z,983.74
2019-03-17T10:24:10.055Z,983.77
2019-03-17T10:25:09.876Z,983.75
2019-03-17T10:26:09.870Z,983.77
2019-03-17T10:27:09.863Z,983.84
2019-03-17T10:28:09.872Z,983.85
2019-03-17T10:29:09.850Z,983.87
2019-03-17T10:30:09.956Z,983.82
2019-03-17T10:31:09.825Z,983.78
2019-03-17T10:32:09.843Z,983.87
2019-03-17T10:33:09.824Z,983.80
2019-03-17T10:34:09.799Z,983.87
2019-03-17T10:35:09.769Z,983.77
2019-03-17T10:36:09.891Z,983.81
2019-03-17T10:37:09.771Z,983.87
2019-03-17T10:38:09.744Z,983.63
2019-03-17T10:39:12.587Z,983.80
2019-03-17T10:40:09.740Z,983.78
2019-03-17T10:41:09.723Z,983.79
2019-03-17T10:42:09.830Z,983.96
2019-03-17T10:43:10.615Z,983.84
2019-03-17T10:44:09.673Z,983.75
2019-03-17T10:45:09.665Z,983.77
2019-03-17T10:46:09.650Z,983.89
2019-03-17T10:47:09.642Z,983.64
2019-03-17T10:48:09.675Z,983.70
2019-03-17T10:49:09.625Z,983.74
2019-03-17T10:50:09.669Z,983.78
2019-03-17T10:51:09.608Z,983.71
2019-03-17T10:52:09.590Z,983.73
2019-03-17T10:53:09.581Z,983.86
2019-03-17T10:54:09.598Z,983.83
2019-03-17T10:55:09.563Z,983.87
2019-03-17T10:56:09.560Z,983.83
2019-03-17T10:57:09.540Z,984.02
2019-03-17T10:58:09.525Z,983.86
2019-03-17T10:59:09.519Z,983.93
2019-03-17T11:00:09.537Z,983.89
2019-03-17T11:01:09.497Z,983.86
2019-03-17T11:02:09.483Z,983.89
2019-03-17T11:03:09.478Z,983.93
2019-03-17T11:04:09.465Z,983.85
2019-03-17T11:05:09.449Z,983.93
2019-03-17T11:06:09.684Z,983.97
2019-03-17T11:07:09.578Z,983.92
2019-03-17T11:08:09.482Z,983.94
2019-03-17T11:09:09.668Z,984.05
2019-03-17T11:10:09.394Z,984.07
2019-03-17T11:11:11.973Z,984.06
2019-03-17T11:12:09.434Z,984.10
2019-03-17T11:13:09.370Z,984.06
2019-03-17T11:14:09.348Z,984.13
2019-03-17T11:15:09.338Z,984.15
2019-03-17T11:16:09.337Z,984.12
2019-03-17T11:17:10.413Z,984.25
2019-03-17T11:18:09.447Z,984.22
2019-03-17T11:19:09.304Z,984.21
2019-03-17T11:20:09.291Z,984.26
2019-03-17T11:21:09.290Z,984.40
2019-03-17T11:22:09.268Z,984.28
2019-03-17T11:23:09.262Z,984.39
2019-03-17T11:24:09.284Z,984.34
2019-03-17T11:25:09.254Z,984.33
2019-03-17T11:26:09.227Z,984.38
2019-03-17T11:27:09.231Z,984.35
2019-03-17T11:28:09.225Z,984.47
2019-03-17T11:29:09.193Z,984.47
2019-03-17T11:30:09.210Z,984.56
2019-03-17T11:31:09.173Z,984.52
2019-03-17T11:32:09.163Z,984.49
2019-03-17T11:33:09.146Z,984.53
2019-03-17T11:34:09.221Z,984.59
2019-03-17T11:35:09.129Z,984.56
2019-03-17T11:36:09.161Z,984.52
2019-03-17T11:37:09.131Z,984.62
2019-03-17T11:38:09.093Z,984.55
2019-03-17T11:39:09.094Z,984.62
2019-03-17T11:40:09.123Z,984.69
2019-03-17T11:41:09.106Z,984.74
2019-03-17T11:42:09.175Z,984.69
2019-03-17T11:43:09.049Z,984.82
2019-03-17T11:44:09.026Z,984.75
2019-03-17T11:45:09.020Z,984.73
2019-03-17T11:46:09.012Z,984.74
2019-03-17T11:47:08.995Z,984.69
2019-03-17T11:48:09.109Z,984.77
2019-03-17T11:49:09.001Z,984.84
2019-03-17T11:50:08.994Z,984.70
2019-03-17T11:51:08.954Z,984.69
2019-03-17T11:52:08.945Z,984.56
2019-03-17T11:53:08.966Z,984.60
2019-03-17T11:54:08.980Z,984.71
2019-03-17T11:55:08.912Z,984.69
2019-03-17T11:56:09.022Z,984.68
2019-03-17T11:57:08.892Z,984.63
2019-03-17T11:58:08.895Z,984.66
2019-03-17T11:59:08.869Z,984.69
2019-03-17T12:00:08.893Z,984.84
2019-03-17T12:01:08.844Z,984.76
2019-03-17T12:02:08.837Z,984.77
2019-03-17T12:03:08.881Z,984.73
2019-03-17T12:04:08.819Z,984.62
2019-03-17T12:05:08.822Z,984.66
2019-03-17T12:06:08.858Z,984.72
2019-03-17T12:07:08.797Z,984.64
2019-03-17T12:08:08.787Z,984.65
2019-03-17T12:09:08.764Z,984.67
2019-03-17T12:10:08.791Z,984.65
2019-03-17T12:11:08.743Z,984.74
2019-03-17T12:12:08.877Z,984.70
2019-03-17T12:13:08.779Z,984.71
2019-03-17T12:14:09.918Z,984.64
2019-03-17T12:15:08.695Z,984.63
2019-03-17T12:16:08.683Z,984.65
2019-03-17T12:17:08.677Z,984.58
2019-03-17T12:18:08.785Z,984.52
2019-03-17T12:19:08.649Z,984.58
2019-03-17T12:20:08.746Z,984.62
2019-03-17T12:21:08.633Z,984.54
2019-03-17T12:22:09.567Z,984.56
2019-03-17T12:23:08.666Z,984.55
2019-03-17T12:24:08.642Z,984.63
2019-03-17T12:25:11.397Z,984.62
2019-03-17T12:26:08.584Z,984.57
2019-03-17T12:27:08.614Z,984.60
2019-03-17T12:28:08.707Z,984.66